< Cyclone 198413 1984 Season Cyclone 198415 >
Cyclone 198414 (BOBBY)
General InformationTrack Information on Google MapsList of All Images || ResourceGoogle EarthGE AnimationAtom FeedGeoJSON
Detalied Best Track (Time Zone = UTC)
Year Month Day Hour Lat. Long. Pressure (hPa) Wind (kt) Class Image Chart
1984 2 17 12 -16.1 120.0 996 0 0 Image --
1984 2 17 18 -17.4 118.8 995 0 0 Image --
1984 2 18 00 -17.9 118.3 980 0 0 Image --
1984 2 18 06 -18.3 117.3 975 0 0 Image --
1984 2 18 12 -18.2 116.3 975 0 0 Image --
1984 2 18 18 -18.1 115.8 970 0 0 Image --
1984 2 19 00 -18.1 115.3 970 0 0 Image --
1984 2 19 06 -18.1 114.8 965 0 0 Image --
1984 2 19 12 -18.3 114.1 955 0 0 Image --
1984 2 19 18 -18.7 113.1 955 0 0 Image --
1984 2 20 00 -19.0 112.9 955 0 0 Image --
1984 2 20 06 -19.0 112.2 955 0 0 Image --
1984 2 20 12 -19.3 111.4 955 0 0 Image --
1984 2 20 18 -19.9 111.0 955 0 0 Image --
1984 2 21 00 -20.6 110.3 950 0 0 Image --
1984 2 21 06 -21.9 110.0 955 0 0 Image --
1984 2 21 12 -22.8 109.9 955 0 0 Image --
1984 2 21 18 -23.4 109.7 964 0 0 Image --
1984 2 22 00 -23.4 109.4 968 0 0 Image --
1984 2 22 06 -23.4 109.1 980 0 0 Image --
1984 2 22 12 -23.4 108.5 984 0 0 Image --
1984 2 22 18 -24.3 107.3 986 0 0 Image --
1984 2 23 00 -25.7 106.1 990 0 0 Image --
1984 2 23 06 -26.5 104.1 992 0 0 Image --
1984 2 23 12 -26.9 103.0 998 0 0 Image --
< Cyclone 198413 1984 Season Cyclone 198415 >

Help